FW5493 Weather Reports


Display with metric or nautical units.
time (UTC)temp
F
wind
direction
speed
MPH
gust
MPH
rain 1hr
in
rain 24hr
in
rain mn
in
humidity
%
barometer
mb
20191018133040 44 219 18.0 25.0 0.00 0.00 0.00 54 1002.1
20191018131518 43 217 15.0 22.0 0.00 0.00 0.00 58 1002.1
20191018130045 39 185 9.0 14.0 0.00 0.00 0.00 64 1002.2
20191018124543 42 165 9.0 17.0 0.00 0.00 0.00 58 1002.1
20191018123042 42 215 12.0 18.0 0.00 0.00 0.00 58 1002.0
20191018121518 40 183 9.0 15.0 0.00 0.00 0.00 64 1001.9
20191018120045 39 188 9.0 14.0 0.00 0.00 0.00 65 1002.2
20191018114600 39 182 10.0 19.0 0.00 0.00 0.00 66 1002.2
20191018113029 39 165 11.0 18.0 0.00 0.00 0.00 67 1002.3
20191018111520 36 166 12.0 15.0 0.00 0.00 0.00 72 1002.5
20191018110021 36 157 10.0 14.0 0.00 0.00 0.00 71 1002.4
20191018104535 39 171 10.0 16.0 0.00 0.00 0.00 65 1002.3
20191018103036 43 201 9.0 22.0 0.00 0.00 0.00 58 1002.4
20191018101525 44 199 15.0 24.0 0.00 0.00 0.00 56 1002.4
20191018100018 44 207 18.0 25.0 0.00 0.00 0.00 56 1002.4
20191018094535 43 203 16.0 23.0 0.00 0.00 0.00 56 1002.4
20191018093015 44 206 17.0 24.0 0.00 0.00 0.00 55 1002.4
20191018091528 44 204 18.0 24.0 0.00 0.00 0.00 56 1002.3
20191018090044 42 205 12.0 18.0 0.00 0.00 0.00 59 1002.4
20191018084553 41 211 12.0 18.0 0.00 0.00 0.00 59 1002.3
20191018083026 41 194 10.0 16.0 0.00 0.00 0.00 60 1002.6
20191018081520 41 200 10.0 17.0 0.00 0.00 0.00 58 1002.5
20191018080116 42 176 13.0 18.0 0.00 0.00 0.00 57 1002.4
20191018074531 42 184 13.0 18.0 0.00 0.00 0.00 58 1002.3
20191018073030 40 188 11.0 17.0 0.00 0.00 0.00 61 1002.4
20191018071555 41 175 10.0 19.0 0.00 0.00 0.00 60 1002.6
20191018070013 41 206 11.0 17.0 0.00 0.00 0.00 61 1002.7
20191018064517 39 188 10.0 15.0 0.00 0.00 0.00 64 1002.8
20191018063024 41 184 9.0 15.0 0.00 0.00 0.00 59 1002.8
20191018061537 42 201 9.0 17.0 0.00 0.00 0.00 57 1002.7
20191018060015 41 181 8.0 15.0 0.00 0.00 0.00 60 1002.9
20191018054537 39 174 10.0 14.0 0.00 0.00 0.00 66 1002.9
20191018053114 40 159 8.0 13.0 0.00 0.00 0.00 62 1002.9
20191018051535 45 199 8.0 18.0 0.00 0.00 0.00 52 1002.8
20191018050041 46 227 14.0 20.0 0.00 0.00 0.00 51 1002.5
20191018044532 45 213 13.0 17.0 0.00 0.00 0.00 54 1002.6
20191018043055 45 207 11.0 17.0 0.00 0.00 0.00 53 1002.5
20191018041523 45 213 10.0 16.0 0.00 0.00 0.00 51 1002.7
20191018040031 44 221 11.0 17.0 0.00 0.00 0.00 52 1002.5
20191018034536 42 243 8.0 12.0 0.00 0.00 0.00 54 1002.5
20191018033044 42 273 7.0 9.0 0.00 0.00 0.00 54 1002.7
20191018031518 43 254 3.0 9.0 0.00 0.00 0.00 52 1002.5
20191018030015 45 243 6.0 13.0 0.00 0.00 0.00 51 1002.4
20191018024539 45 255 8.0 13.0 0.00 0.00 0.00 54 1002.5
20191018023036 46 272 9.0 15.0 0.00 0.00 0.00 52 1002.5
20191018021544 47 240 9.0 14.0 0.00 0.00 0.00 51 1002.3
20191018020031 47 264 7.0 12.0 0.00 0.00 0.00 51 1002.3
20191018014514 48 207 3.0 8.0 0.00 0.00 0.00 50 1002.1
20191018013047 50 232 7.0 13.0 0.00 0.00 0.00 47 1001.8
20191018011532 50 241 9.0 14.0 0.00 0.00 0.00 47 1001.4
20191018010036 50 234 7.0 13.0 0.00 0.00 0.00 48 1001.1
20191018004530 52 257 8.0 17.0 0.00 0.00 0.00 45 1001.0
20191018003031 53 250 10.0 22.0 0.00 0.00 0.00 52 1000.8
20191018001519 55 205 12.0 19.0 0.00 0.00 0.00 50 1000.0
20191018000049 56 221 12.0 19.0 0.00 0.00 0.00 47 999.7
20191017234512 57 229 10.0 17.0 0.00 0.00 0.00 44 999.5
20191017233017 56 219 11.0 18.0 0.00 0.00 0.00 43 999.3
20191017231607 57 225 16.0 22.0 0.00 0.00 0.00 42 999.2
20191017230030 57 223 13.0 22.0 0.00 0.00 0.00 41 999.2
20191017224524 58 259 13.0 25.0 0.00 0.00 0.00 40 999.1
20191017223031 59 248 15.0 24.0 0.00 0.00 0.00 38 999.0
20191017221558 59 269 15.0 27.0 0.00 0.00 0.00 39 998.7
20191017220017 60 272 18.0 28.0 0.00 0.00 0.00 38 998.4
20191017214531 60 265 14.0 20.0 0.00 0.00 0.00 38 998.2
20191017213019 59 271 10.0 17.0 0.00 0.00 0.00 38 998.3
20191017211523 60 263 11.0 19.0 0.00 0.00 0.00 36 998.2
20191017210020 61 265 10.0 17.0 0.00 0.00 0.00 34 998.2
20191017204550 62 227 12.0 20.0 0.00 0.00 0.00 33 998.3
20191017203035 62 259 10.0 16.0 0.00 0.00 0.00 32 998.5
20191017201518 61 253 8.0 14.0 0.00 0.00 0.00 33 998.5
20191017200026 61 243 8.0 13.0 0.00 0.00 0.00 33 998.7
20191017194523 61 246 8.0 14.0 0.00 0.00 0.00 32 998.7
20191017193015 61 259 7.0 11.0 0.00 0.00 0.00 32 998.7
20191017191529 61 275 6.0 9.0 0.00 0.00 0.00 33 998.7
20191017190015 61 257 5.0 9.0 0.00 0.00 0.00 33 998.9
20191017184521 60 271 5.0 10.0 0.00 0.00 0.00 32 999.1
20191017183045 60 277 6.0 11.0 0.00 0.00 0.00 29 999.2
20191017181522 61 270 7.0 12.0 0.00 0.00 0.00 31 999.2
20191017180025 62 233 4.0 8.0 0.00 0.00 0.00 32 999.1
20191017174526 61 273 5.0 8.0 0.00 0.00 0.00 33 998.9
20191017173022 61 269 2.0 6.0 0.00 0.00 0.00 37 999.0
20191017171514 59 0 0.0 7.0 0.00 0.00 0.00 33 999.0
20191017170023 58 70 1.0 3.0 0.00 0.00 0.00 39 998.8
20191017164528 56 352 1.0 3.0 0.00 0.00 0.00 42 998.7
20191017163035 56 338 3.0 13.0 0.00 0.00 0.00 45 998.8
20191017161527 58 174 4.0 10.0 0.00 0.00 0.00 33 998.6
20191017160044 57 199 4.0 10.0 0.00 0.00 0.00 34 998.7
20191017154522 55 202 2.0 5.0 0.00 0.00 0.00 38 998.6
20191017153018 52 269 3.0 6.0 0.00 0.00 0.00 40 998.6
20191017151528 50 0 0.0 3.0 0.00 0.00 0.00 41 998.6
20191017150014 49 342 2.0 5.0 0.00 0.00 0.00 49 998.6
20191017144549 49 289 1.0 3.0 0.00 0.00 0.00 43 998.6
20191017143022 51 294 1.0 9.0 0.00 0.00 0.00 41 998.6
20191017141547 53 189 8.0 12.0 0.00 0.00 0.00 34 998.7
20191017140020 50 219 5.0 9.0 0.00 0.00 0.00 39 998.7
20191017134515 49 223 4.0 6.0 0.00 0.00 0.00 40 998.7